27C weather

Mecosta Morton Airport
Mecosta, Michigan, United States

Public forecast

Using degrees Fahrenheit for public forecast. Weather courtesy of forecast.io.

METAR (pilot weather report)

Closest report is Roben Hood Airport, 11.9 nm (22.0 km) WNW. Retrieved 2019/07/17 14:37 UTC (0 seconds ago):

KRQB 171437Z AUTO 12007KT 10SM BKN017 26/21 A2994 RMK AO2 T02600205

TAF (pilot weather forecast)

Closest forecast is Gerald R. Ford International Airport, 46.4 nm (85.8 km) SSW. Retrieved 2019/07/17 12:42 UTC (1 hour ago):

TAF KGRR 171140Z 1712/1812 04005KT 5SM BR BKN150 FM171300 05005KT P6SM SCT015 FM171600 03005KT P6SM BKN035 FM180400 12005KT P6SM BKN250